sensor_id;sensor_type;location;lat;lon;timestamp;temperature;humidity
53599;DHT22;39485;45.702;11.364;2022-09-09T06:24:22;21.00;99.90
53599;DHT22;39485;45.702;11.364;2022-09-09T06:26:48;21.10;99.90
53599;DHT22;39485;45.702;11.364;2022-09-09T06:29:13;21.20;99.90
53599;DHT22;39485;45.702;11.364;2022-09-09T06:31:39;21.20;99.90
53599;DHT22;39485;45.702;11.364;2022-09-09T06:34:07;21.20;99.90
53599;DHT22;39485;45.702;11.364;2022-09-09T06:36:35;21.20;99.90
53599;DHT22;39485;45.702;11.364;2022-09-09T06:39:02;21.20;99.90
53599;DHT22;39485;45.702;11.364;2022-09-09T06:41:30;21.20;99.90
53599;DHT22;39485;45.702;11.364;2022-09-09T06:43:56;21.20;99.90
53599;DHT22;39485;45.702;11.364;2022-09-09T06:46:30;21.20;99.90
53599;DHT22;39485;45.702;11.364;2022-09-09T06:48:58;21.20;99.90
53599;DHT22;39485;45.702;11.364;2022-09-09T06:51:30;21.20;99.90
53599;DHT22;39485;45.702;11.364;2022-09-09T06:53:58;21.20;99.90
53599;DHT22;39485;45.702;11.364;2022-09-09T06:58:51;21.30;99.90
53599;DHT22;39485;45.702;11.364;2022-09-09T07:01:19;21.30;99.90
53599;DHT22;39485;45.702;11.364;2022-09-09T07:03:47;21.30;99.90
53599;DHT22;39485;45.702;11.364;2022-09-09T07:06:15;21.40;99.90
53599;DHT22;39485;45.702;11.364;2022-09-09T07:08:43;21.40;99.90
53599;DHT22;39485;45.702;11.364;2022-09-09T07:11:09;21.40;99.90
53599;DHT22;39485;45.702;11.364;2022-09-09T07:13:36;21.50;99.90
53599;DHT22;39485;45.702;11.364;2022-09-09T07:16:06;21.60;99.90
53599;DHT22;39485;45.702;11.364;2022-09-09T07:18:32;21.70;99.90
53599;DHT22;39485;45.702;11.364;2022-09-09T07:20:58;22.00;99.90
53599;DHT22;39485;45.702;11.364;2022-09-09T07:23:24;22.20;99.90
53599;DHT22;39485;45.702;11.364;2022-09-09T07:25:51;22.30;99.90
53599;DHT22;39485;45.702;11.364;2022-09-09T07:28:18;22.50;99.90
53599;DHT22;39485;45.702;11.364;2022-09-09T07:30:56;22.60;99.90
53599;DHT22;39485;45.702;11.364;2022-09-09T07:33:24;22.70;99.90
53599;DHT22;39485;45.702;11.364;2022-09-09T07:35:50;22.80;99.90
53599;DHT22;39485;45.702;11.364;2022-09-09T07:38:16;22.90;99.90
53599;DHT22;39485;45.702;11.364;2022-09-09T07:40:42;22.90;99.90
53599;DHT22;39485;45.702;11.364;2022-09-09T07:43:09;22.90;99.90
53599;DHT22;39485;45.702;11.364;2022-09-09T07:45:35;22.90;99.90
53599;DHT22;39485;45.702;11.364;2022-09-09T07:48:01;23.00;99.90
53599;DHT22;39485;45.702;11.364;2022-09-09T07:50:27;23.10;99.90
53599;DHT22;39485;45.702;11.364;2022-09-09T07:52:53;23.20;99.90
53599;DHT22;39485;45.702;11.364;2022-09-09T07:55:23;23.30;99.90
53599;DHT22;39485;45.702;11.364;2022-09-09T07:57:53;23.30;99.90
53599;DHT22;39485;45.702;11.364;2022-09-09T08:00:19;23.40;99.90
53599;DHT22;39485;45.702;11.364;2022-09-09T08:02:47;23.40;99.90
53599;DHT22;39485;45.702;11.364;2022-09-09T08:05:13;23.40;99.90
53599;DHT22;39485;45.702;11.364;2022-09-09T08:07:40;23.40;99.90
53599;DHT22;39485;45.702;11.364;2022-09-09T08:10:06;23.40;99.90
53599;DHT22;39485;45.702;11.364;2022-09-09T08:12:32;23.30;99.90
53599;DHT22;39485;45.702;11.364;2022-09-09T08:14:58;23.30;99.90
53599;DHT22;39485;45.702;11.364;2022-09-09T08:17:23;23.30;99.90
53599;DHT22;39485;45.702;11.364;2022-09-09T08:19:49;23.20;99.90
53599;DHT22;39485;45.702;11.364;2022-09-09T08:22:15;23.30;99.90
53599;DHT22;39485;45.702;11.364;2022-09-09T08:24:41;23.30;99.90
53599;DHT22;39485;45.702;11.364;2022-09-09T08:27:07;23.30;99.90
53599;DHT22;39485;45.702;11.364;2022-09-09T08:29:32;23.30;99.90
53599;DHT22;39485;45.702;11.364;2022-09-09T08:31:58;23.40;99.90
53599;DHT22;39485;45.702;11.364;2022-09-09T08:34:25;23.40;99.90
53599;DHT22;39485;45.702;11.364;2022-09-09T08:36:52;23.40;99.90
53599;DHT22;39485;45.702;11.364;2022-09-09T08:39:20;23.40;99.90
53599;DHT22;39485;45.702;11.364;2022-09-09T08:50:17;23.60;99.90
53599;DHT22;39485;45.702;11.364;2022-09-09T08:53:15;23.70;99.90
53599;DHT22;39485;45.702;11.364;2022-09-09T08:55:48;23.80;99.90
53599;DHT22;39485;45.702;11.364;2022-09-09T08:58:33;23.90;99.90
53599;DHT22;39485;45.702;11.364;2022-09-09T09:06:21;24.40;99.90
53599;DHT22;39485;45.702;11.364;2022-09-09T09:08:58;24.40;99.90
53599;DHT22;39485;45.702;11.364;2022-09-09T09:11:25;24.40;99.90
53599;DHT22;39485;45.702;11.364;2022-09-09T09:13:58;24.40;99.90
53599;DHT22;39485;45.702;11.364;2022-09-09T09:16:47;24.40;99.90
53599;DHT22;39485;45.702;11.364;2022-09-09T09:19:15;24.40;99.90
53599;DHT22;39485;45.702;11.364;2022-09-09T09:22:41;24.40;99.90
53599;DHT22;39485;45.702;11.364;2022-09-09T09:27:35;24.30;99.90
53599;DHT22;39485;45.702;11.364;2022-09-09T09:30:14;24.30;99.90
53599;DHT22;39485;45.702;11.364;2022-09-09T09:32:44;24.30;99.90
53599;DHT22;39485;45.702;11.364;2022-09-09T09:35:13;24.40;99.90
53599;DHT22;39485;45.702;11.364;2022-09-09T09:37:40;24.50;99.90
53599;DHT22;39485;45.702;11.364;2022-09-09T09:40:12;24.70;99.90
53599;DHT22;39485;45.702;11.364;2022-09-09T09:42:57;24.80;99.90
53599;DHT22;39485;45.702;11.364;2022-09-09T09:48:10;24.80;99.90
53599;DHT22;39485;45.702;11.364;2022-09-09T09:50:50;24.80;99.90
53599;DHT22;39485;45.702;11.364;2022-09-09T09:56:02;24.60;99.90
53599;DHT22;39485;45.702;11.364;2022-09-09T09:58:31;24.60;99.90
53599;DHT22;39485;45.702;11.364;2022-09-09T10:01:00;24.50;99.90
53599;DHT22;39485;45.702;11.364;2022-09-09T10:03:29;24.50;99.90
53599;DHT22;39485;45.702;11.364;2022-09-09T10:05:55;24.60;99.90
53599;DHT22;39485;45.702;11.364;2022-09-09T10:08:25;24.60;99.90
53599;DHT22;39485;45.702;11.364;2022-09-09T10:11:16;24.70;99.90
53599;DHT22;39485;45.702;11.364;2022-09-09T10:14:04;24.80;99.90
53599;DHT22;39485;45.702;11.364;2022-09-09T10:17:12;24.90;99.90
53599;DHT22;39485;45.702;11.364;2022-09-09T10:19:46;24.90;99.90
53599;DHT22;39485;45.702;11.364;2022-09-09T10:22:27;24.90;99.90
53599;DHT22;39485;45.702;11.364;2022-09-09T10:34:05;24.60;99.90
53599;DHT22;39485;45.702;11.364;2022-09-09T10:36:44;24.50;99.90
53599;DHT22;39485;45.702;11.364;2022-09-09T10:39:34;24.40;99.90
53599;DHT22;39485;45.702;11.364;2022-09-09T10:42:09;24.30;99.90
53599;DHT22;39485;45.702;11.364;2022-09-09T10:45:02;24.30;99.90
53599;DHT22;39485;45.702;11.364;2022-09-09T10:55:52;24.00;99.90
53599;DHT22;39485;45.702;11.364;2022-09-09T10:58:44;23.90;99.90
53599;DHT22;39485;45.702;11.364;2022-09-09T11:01:42;23.80;99.90
53599;DHT22;39485;45.702;11.364;2022-09-09T11:04:24;23.80;99.90
53599;DHT22;39485;45.702;11.364;2022-09-09T11:06:55;23.60;99.90
53599;DHT22;39485;45.702;11.364;2022-09-09T11:09:27;23.40;99.90
53599;DHT22;39485;45.702;11.364;2022-09-09T11:11:58;23.10;99.90
53599;DHT22;39485;45.702;11.364;2022-09-09T11:14:52;23.00;99.90
53599;DHT22;39485;45.702;11.364;2022-09-09T11:17:23;22.70;99.90
53599;DHT22;39485;45.702;11.364;2022-09-09T11:19:50;22.60;99.90
53599;DHT22;39485;45.702;11.364;2022-09-09T11:22:37;22.40;99.90
53599;DHT22;39485;45.702;11.364;2022-09-09T11:25:22;22.30;99.90
53599;DHT22;39485;45.702;11.364;2022-09-09T11:28:11;22.10;99.90
53599;DHT22;39485;45.702;11.364;2022-09-09T11:30:50;22.10;99.90
53599;DHT22;39485;45.702;11.364;2022-09-09T11:41:14;22.10;99.90
53599;DHT22;39485;45.702;11.364;2022-09-09T11:43:41;22.20;99.90
53599;DHT22;39485;45.702;11.364;2022-09-09T11:46:08;22.20;99.90
53599;DHT22;39485;45.702;11.364;2022-09-09T11:48:43;22.20;99.90
53599;DHT22;39485;45.702;11.364;2022-09-09T11:51:26;22.20;99.90
53599;DHT22;39485;45.702;11.364;2022-09-09T11:54:00;22.20;99.90
53599;DHT22;39485;45.702;11.364;2022-09-09T11:56:56;22.20;99.90
53599;DHT22;39485;45.702;11.364;2022-09-09T12:01:57;22.10;99.90
53599;DHT22;39485;45.702;11.364;2022-09-09T12:12:37;22.20;99.90
53599;DHT22;39485;45.702;11.364;2022-09-09T12:17:54;22.10;99.90
53599;DHT22;39485;45.702;11.364;2022-09-09T12:20:21;22.20;99.90
53599;DHT22;39485;45.702;11.364;2022-09-09T12:31:23;22.30;99.90
53599;DHT22;39485;45.702;11.364;2022-09-09T12:33:23;22.40;99.90
53599;DHT22;39485;45.702;11.364;2022-09-09T12:35:57;22.40;99.90
53599;DHT22;39485;45.702;11.364;2022-09-09T12:38:34;22.50;99.90
53599;DHT22;39485;45.702;11.364;2022-09-09T12:41:00;22.50;99.90
53599;DHT22;39485;45.702;11.364;2022-09-09T12:43:27;22.60;99.90
53599;DHT22;39485;45.702;11.364;2022-09-09T12:45:56;22.70;99.90
53599;DHT22;39485;45.702;11.364;2022-09-09T12:48:41;22.80;99.90
53599;DHT22;39485;45.702;11.364;2022-09-09T12:51:30;22.80;99.90
53599;DHT22;39485;45.702;11.364;2022-09-09T12:53:57;22.90;99.90
53599;DHT22;39485;45.702;11.364;2022-09-09T12:56:33;22.90;99.90
53599;DHT22;39485;45.702;11.364;2022-09-09T12:58:59;22.90;99.90
53599;DHT22;39485;45.702;11.364;2022-09-09T13:01:27;22.90;99.90
53599;DHT22;39485;45.702;11.364;2022-09-09T13:03:54;22.90;99.90
53599;DHT22;39485;45.702;11.364;2022-09-09T13:06:24;23.00;99.90
53599;DHT22;39485;45.702;11.364;2022-09-09T13:08:52;23.00;99.90
53599;DHT22;39485;45.702;11.364;2022-09-09T13:11:28;23.00;99.90
53599;DHT22;39485;45.702;11.364;2022-09-09T13:13:57;23.00;99.90
53599;DHT22;39485;45.702;11.364;2022-09-09T13:16:27;23.00;99.90
53599;DHT22;39485;45.702;11.364;2022-09-09T13:18:59;23.00;99.90
53599;DHT22;39485;45.702;11.364;2022-09-09T13:21:36;23.00;99.90
53599;DHT22;39485;45.702;11.364;2022-09-09T13:27:00;23.00;99.90
53599;DHT22;39485;45.702;11.364;2022-09-09T13:29:30;23.00;99.90
53599;DHT22;39485;45.702;11.364;2022-09-09T13:32:15;23.00;99.90
53599;DHT22;39485;45.702;11.364;2022-09-09T13:35:00;23.00;99.90
53599;DHT22;39485;45.702;11.364;2022-09-09T13:37:36;22.90;99.90
53599;DHT22;39485;45.702;11.364;2022-09-09T13:40:04;22.90;99.90
53599;DHT22;39485;45.702;11.364;2022-09-09T13:42:33;22.90;99.90
53599;DHT22;39485;45.702;11.364;2022-09-09T13:45:03;22.90;99.90
53599;DHT22;39485;45.702;11.364;2022-09-09T13:47:35;22.90;99.90
53599;DHT22;39485;45.702;11.364;2022-09-09T13:50:22;22.90;99.90
53599;DHT22;39485;45.702;11.364;2022-09-09T13:52:49;22.90;99.90
53599;DHT22;39485;45.702;11.364;2022-09-09T13:55:17;22.90;99.90
53599;DHT22;39485;45.702;11.364;2022-09-09T13:58:01;22.90;99.90
53599;DHT22;39485;45.702;11.364;2022-09-09T14:00:29;22.90;99.90
53599;DHT22;39485;45.702;11.364;2022-09-09T14:02:56;22.90;99.90
53599;DHT22;39485;45.702;11.364;2022-09-09T14:05:22;22.80;99.90
53599;DHT22;39485;45.702;11.364;2022-09-09T14:07:49;22.70;99.90
53599;DHT22;39485;45.702;11.364;2022-09-09T14:10:15;22.60;99.90
53599;DHT22;39485;45.702;11.364;2022-09-09T14:12:41;22.60;99.90
53599;DHT22;39485;45.702;11.364;2022-09-09T14:15:09;22.60;99.90
53599;DHT22;39485;45.702;11.364;2022-09-09T14:17:35;22.60;99.90
53599;DHT22;39485;45.702;11.364;2022-09-09T14:20:04;22.50;99.90
53599;DHT22;39485;45.702;11.364;2022-09-09T14:22:34;22.50;99.90
53599;DHT22;39485;45.702;11.364;2022-09-09T14:25:01;22.60;99.90
53599;DHT22;39485;45.702;11.364;2022-09-09T14:27:27;22.50;99.90
53599;DHT22;39485;45.702;11.364;2022-09-09T14:29:53;22.50;99.90
53599;DHT22;39485;45.702;11.364;2022-09-09T14:32:19;22.60;99.90
53599;DHT22;39485;45.702;11.364;2022-09-09T14:34:44;22.60;99.90
53599;DHT22;39485;45.702;11.364;2022-09-09T14:37:10;22.60;99.90
53599;DHT22;39485;45.702;11.364;2022-09-09T14:39:36;22.60;99.90
53599;DHT22;39485;45.702;11.364;2022-09-09T14:42:01;22.60;99.90
53599;DHT22;39485;45.702;11.364;2022-09-09T14:44:28;22.70;99.90
53599;DHT22;39485;45.702;11.364;2022-09-09T14:46:53;22.70;99.90
53599;DHT22;39485;45.702;11.364;2022-09-09T14:49:19;22.80;99.90
53599;DHT22;39485;45.702;11.364;2022-09-09T14:51:45;22.80;99.90
53599;DHT22;39485;45.702;11.364;2022-09-09T14:54:11;22.80;99.90
53599;DHT22;39485;45.702;11.364;2022-09-09T14:56:37;22.80;99.90
53599;DHT22;39485;45.702;11.364;2022-09-09T14:59:04;22.80;99.90
53599;DHT22;39485;45.702;11.364;2022-09-09T15:01:30;22.80;99.90
53599;DHT22;39485;45.702;11.364;2022-09-09T15:03:59;22.80;99.90
53599;DHT22;39485;45.702;11.364;2022-09-09T15:06:27;22.90;99.90
53599;DHT22;39485;45.702;11.364;2022-09-09T15:08:54;22.80;99.90
53599;DHT22;39485;45.702;11.364;2022-09-09T15:11:23;22.90;99.90
53599;DHT22;39485;45.702;11.364;2022-09-09T15:13:51;22.90;99.90
53599;DHT22;39485;45.702;11.364;2022-09-09T15:16:22;22.90;99.90
53599;DHT22;39485;45.702;11.364;2022-09-09T15:18:51;22.90;99.90
53599;DHT22;39485;45.702;11.364;2022-09-09T15:21:20;22.90;99.90
53599;DHT22;39485;45.702;11.364;2022-09-09T15:23:48;22.90;99.90
53599;DHT22;39485;45.702;11.364;2022-09-09T15:26:14;23.00;99.90
53599;DHT22;39485;45.702;11.364;2022-09-09T15:28:41;23.00;99.90
53599;DHT22;39485;45.702;11.364;2022-09-09T15:31:12;23.00;99.90
53599;DHT22;39485;45.702;11.364;2022-09-09T15:33:40;23.00;99.90
53599;DHT22;39485;45.702;11.364;2022-09-09T15:36:23;23.10;99.90
53599;DHT22;39485;45.702;11.364;2022-09-09T15:38:50;23.10;99.90
53599;DHT22;39485;45.702;11.364;2022-09-09T15:41:17;23.10;99.90
53599;DHT22;39485;45.702;11.364;2022-09-09T15:43:44;23.00;99.90
53599;DHT22;39485;45.702;11.364;2022-09-09T15:48:46;23.00;99.90
53599;DHT22;39485;45.702;11.364;2022-09-09T15:51:14;23.00;99.90
53599;DHT22;39485;45.702;11.364;2022-09-09T15:53:40;23.00;99.90
53599;DHT22;39485;45.702;11.364;2022-09-09T15:56:06;22.90;99.90
53599;DHT22;39485;45.702;11.364;2022-09-09T15:58:33;22.90;99.90
53599;DHT22;39485;45.702;11.364;2022-09-09T16:01:06;22.90;99.90
53599;DHT22;39485;45.702;11.364;2022-09-09T16:03:36;22.90;99.90
53599;DHT22;39485;45.702;11.364;2022-09-09T16:06:03;22.90;99.90
53599;DHT22;39485;45.702;11.364;2022-09-09T16:08:34;22.90;99.90
53599;DHT22;39485;45.702;11.364;2022-09-09T16:11:07;22.90;99.90
53599;DHT22;39485;45.702;11.364;2022-09-09T16:13:38;22.90;99.90
53599;DHT22;39485;45.702;11.364;2022-09-09T16:16:05;22.80;99.90
53599;DHT22;39485;45.702;11.364;2022-09-09T16:18:40;22.80;99.90
53599;DHT22;39485;45.702;11.364;2022-09-09T16:21:05;22.80;99.90
53599;DHT22;39485;45.702;11.364;2022-09-09T16:23:34;22.80;99.90
53599;DHT22;39485;45.702;11.364;2022-09-09T16:26:01;22.80;99.90
53599;DHT22;39485;45.702;11.364;2022-09-09T16:28:27;22.80;99.90
53599;DHT22;39485;45.702;11.364;2022-09-09T16:30:53;22.70;99.90
53599;DHT22;39485;45.702;11.364;2022-09-09T16:33:19;22.70;99.90
53599;DHT22;39485;45.702;11.364;2022-09-09T16:35:45;22.70;99.90
53599;DHT22;39485;45.702;11.364;2022-09-09T16:38:11;22.70;99.90
53599;DHT22;39485;45.702;11.364;2022-09-09T16:40:37;22.60;99.90
53599;DHT22;39485;45.702;11.364;2022-09-09T16:43:04;22.60;99.90
53599;DHT22;39485;45.702;11.364;2022-09-09T16:45:31;22.60;99.90
53599;DHT22;39485;45.702;11.364;2022-09-09T16:47:58;22.60;99.90
53599;DHT22;39485;45.702;11.364;2022-09-09T16:50:24;22.60;99.90
53599;DHT22;39485;45.702;11.364;2022-09-09T16:52:51;22.50;99.90
53599;DHT22;39485;45.702;11.364;2022-09-09T16:55:17;22.60;99.90
53599;DHT22;39485;45.702;11.364;2022-09-09T16:57:46;22.60;99.90
53599;DHT22;39485;45.702;11.364;2022-09-09T17:00:14;22.50;99.90
53599;DHT22;39485;45.702;11.364;2022-09-09T17:02:42;22.50;99.90
53599;DHT22;39485;45.702;11.364;2022-09-09T17:05:08;22.40;99.90
53599;DHT22;39485;45.702;11.364;2022-09-09T17:07:34;22.40;99.90
53599;DHT22;39485;45.702;11.364;2022-09-09T17:10:01;22.30;99.90
53599;DHT22;39485;45.702;11.364;2022-09-09T17:12:27;22.30;99.90
53599;DHT22;39485;45.702;11.364;2022-09-09T17:14:53;22.20;99.90
53599;DHT22;39485;45.702;11.364;2022-09-09T17:17:20;22.10;99.90
53599;DHT22;39485;45.702;11.364;2022-09-09T17:19:46;22.00;99.90
53599;DHT22;39485;45.702;11.364;2022-09-09T17:22:12;21.90;99.90
53599;DHT22;39485;45.702;11.364;2022-09-09T17:24:38;21.90;99.90
53599;DHT22;39485;45.702;11.364;2022-09-09T17:27:05;21.80;99.90
53599;DHT22;39485;45.702;11.364;2022-09-09T17:29:31;21.70;99.90
53599;DHT22;39485;45.702;11.364;2022-09-09T17:31:57;21.50;99.90
53599;DHT22;39485;45.702;11.364;2022-09-09T17:34:23;21.50;99.90
53599;DHT22;39485;45.702;11.364;2022-09-09T17:36:50;21.40;99.90
53599;DHT22;39485;45.702;11.364;2022-09-09T17:39:16;21.30;99.90
53599;DHT22;39485;45.702;11.364;2022-09-09T17:41:41;21.20;99.90
53599;DHT22;39485;45.702;11.364;2022-09-09T17:44:07;21.20;99.90
53599;DHT22;39485;45.702;11.364;2022-09-09T17:46:36;21.20;99.90
53599;DHT22;39485;45.702;11.364;2022-09-09T17:49:05;21.10;99.90
53599;DHT22;39485;45.702;11.364;2022-09-09T17:51:32;21.00;99.90
53599;DHT22;39485;45.702;11.364;2022-09-09T17:54:02;20.90;99.90
53599;DHT22;39485;45.702;11.364;2022-09-09T17:56:30;20.90;99.90
53599;DHT22;39485;45.702;11.364;2022-09-09T17:58:58;20.80;99.90
53599;DHT22;39485;45.702;11.364;2022-09-09T18:01:26;20.80;99.90
53599;DHT22;39485;45.702;11.364;2022-09-09T18:03:55;20.70;99.90
53599;DHT22;39485;45.702;11.364;2022-09-09T18:06:24;20.70;99.90
53599;DHT22;39485;45.702;11.364;2022-09-09T18:09:00;20.60;99.90
53599;DHT22;39485;45.702;11.364;2022-09-09T18:11:29;20.50;99.90
53599;DHT22;39485;45.702;11.364;2022-09-09T18:13:58;20.50;99.90
53599;DHT22;39485;45.702;11.364;2022-09-09T18:16:30;20.40;99.90
53599;DHT22;39485;45.702;11.364;2022-09-09T18:18:57;20.40;99.90
53599;DHT22;39485;45.702;11.364;2022-09-09T18:21:24;20.30;99.90
53599;DHT22;39485;45.702;11.364;2022-09-09T18:23:52;20.30;99.90
53599;DHT22;39485;45.702;11.364;2022-09-09T18:26:21;20.20;99.90
53599;DHT22;39485;45.702;11.364;2022-09-09T18:28:57;20.10;99.90
53599;DHT22;39485;45.702;11.364;2022-09-09T18:31:26;20.10;99.90
53599;DHT22;39485;45.702;11.364;2022-09-09T18:33:54;20.10;99.90
53599;DHT22;39485;45.702;11.364;2022-09-09T18:36:26;20.00;99.90
53599;DHT22;39485;45.702;11.364;2022-09-09T18:38:54;20.00;99.90
53599;DHT22;39485;45.702;11.364;2022-09-09T18:41:27;19.90;99.90
53599;DHT22;39485;45.702;11.364;2022-09-09T18:43:55;19.90;99.90
53599;DHT22;39485;45.702;11.364;2022-09-09T18:46:23;19.80;99.90
53599;DHT22;39485;45.702;11.364;2022-09-09T18:48:49;19.90;99.90
53599;DHT22;39485;45.702;11.364;2022-09-09T18:51:18;19.80;99.90
53599;DHT22;39485;45.702;11.364;2022-09-09T18:53:52;19.80;99.90
53599;DHT22;39485;45.702;11.364;2022-09-09T18:56:19;19.70;99.90
53599;DHT22;39485;45.702;11.364;2022-09-09T18:58:45;19.70;99.90
53599;DHT22;39485;45.702;11.364;2022-09-09T19:01:14;19.70;99.90
53599;DHT22;39485;45.702;11.364;2022-09-09T19:03:40;19.70;99.90
53599;DHT22;39485;45.702;11.364;2022-09-09T19:06:09;19.60;99.90
53599;DHT22;39485;45.702;11.364;2022-09-09T19:08:37;19.60;99.90
53599;DHT22;39485;45.702;11.364;2022-09-09T19:11:04;19.60;99.90
53599;DHT22;39485;45.702;11.364;2022-09-09T19:13:31;19.60;99.90
53599;DHT22;39485;45.702;11.364;2022-09-09T19:16:17;19.50;99.90
53599;DHT22;39485;45.702;11.364;2022-09-09T19:18:43;19.50;99.90
53599;DHT22;39485;45.702;11.364;2022-09-09T19:21:15;19.40;99.90
53599;DHT22;39485;45.702;11.364;2022-09-09T19:23:46;19.40;99.90
53599;DHT22;39485;45.702;11.364;2022-09-09T19:26:13;19.40;99.90
53599;DHT22;39485;45.702;11.364;2022-09-09T19:28:43;19.40;99.90
53599;DHT22;39485;45.702;11.364;2022-09-09T19:31:15;19.40;99.90
53599;DHT22;39485;45.702;11.364;2022-09-09T19:33:42;19.40;99.90
53599;DHT22;39485;45.702;11.364;2022-09-09T19:36:12;19.30;99.90
53599;DHT22;39485;45.702;11.364;2022-09-09T19:38:38;19.30;99.90
53599;DHT22;39485;45.702;11.364;2022-09-09T19:41:08;19.30;99.90
53599;DHT22;39485;45.702;11.364;2022-09-09T19:43:35;19.30;99.90
53599;DHT22;39485;45.702;11.364;2022-09-09T19:46:03;19.30;99.90
53599;DHT22;39485;45.702;11.364;2022-09-09T19:48:31;19.30;99.90
53599;DHT22;39485;45.702;11.364;2022-09-09T19:51:04;19.30;99.90
53599;DHT22;39485;45.702;11.364;2022-09-09T19:53:39;19.30;99.90
53599;DHT22;39485;45.702;11.364;2022-09-09T19:56:06;19.30;99.90
53599;DHT22;39485;45.702;11.364;2022-09-09T19:58:34;19.30;99.90
53599;DHT22;39485;45.702;11.364;2022-09-09T20:01:18;19.30;99.90
53599;DHT22;39485;45.702;11.364;2022-09-09T20:03:47;19.30;99.90
53599;DHT22;39485;45.702;11.364;2022-09-09T20:06:15;19.20;99.90
53599;DHT22;39485;45.702;11.364;2022-09-09T20:08:43;19.20;99.90
53599;DHT22;39485;45.702;11.364;2022-09-09T20:11:11;19.20;99.90
53599;DHT22;39485;45.702;11.364;2022-09-09T20:13:37;19.20;99.90
53599;DHT22;39485;45.702;11.364;2022-09-09T20:16:20;19.10;99.90
53599;DHT22;39485;45.702;11.364;2022-09-09T20:18:48;19.10;99.90
53599;DHT22;39485;45.702;11.364;2022-09-09T20:21:28;19.10;99.90
53599;DHT22;39485;45.702;11.364;2022-09-09T20:24:03;19.00;99.90
53599;DHT22;39485;45.702;11.364;2022-09-09T20:26:30;19.00;99.90
53599;DHT22;39485;45.702;11.364;2022-09-09T20:29:00;18.90;99.90
53599;DHT22;39485;45.702;11.364;2022-09-09T20:31:31;18.90;99.90
53599;DHT22;39485;45.702;11.364;2022-09-09T20:33:57;18.90;99.90
53599;DHT22;39485;45.702;11.364;2022-09-09T20:36:24;18.90;99.90
53599;DHT22;39485;45.702;11.364;2022-09-09T20:38:56;18.80;99.90
53599;DHT22;39485;45.702;11.364;2022-09-09T20:41:26;18.80;99.90
53599;DHT22;39485;45.702;11.364;2022-09-09T20:43:54;18.80;99.90
53599;DHT22;39485;45.702;11.364;2022-09-09T20:46:26;18.80;99.90
53599;DHT22;39485;45.702;11.364;2022-09-09T20:48:53;18.80;99.90
53599;DHT22;39485;45.702;11.364;2022-09-09T20:51:21;18.80;99.90
53599;DHT22;39485;45.702;11.364;2022-09-09T20:53:54;18.80;99.90
53599;DHT22;39485;45.702;11.364;2022-09-09T20:56:25;18.80;99.90
53599;DHT22;39485;45.702;11.364;2022-09-09T20:58:51;18.80;99.90
53599;DHT22;39485;45.702;11.364;2022-09-09T21:01:19;18.80;99.90
53599;DHT22;39485;45.702;11.364;2022-09-09T21:03:45;18.80;99.90
53599;DHT22;39485;45.702;11.364;2022-09-09T21:06:12;18.80;99.90
53599;DHT22;39485;45.702;11.364;2022-09-09T21:08:39;18.80;99.90
53599;DHT22;39485;45.702;11.364;2022-09-09T21:11:05;18.70;99.90
53599;DHT22;39485;45.702;11.364;2022-09-09T21:13:33;18.70;99.90
53599;DHT22;39485;45.702;11.364;2022-09-09T21:16:01;18.70;99.90
53599;DHT22;39485;45.702;11.364;2022-09-09T21:18:27;18.70;99.90
53599;DHT22;39485;45.702;11.364;2022-09-09T21:20:53;18.60;99.90
53599;DHT22;39485;45.702;11.364;2022-09-09T21:23:19;18.60;99.90
53599;DHT22;39485;45.702;11.364;2022-09-09T21:25:46;18.60;99.90
53599;DHT22;39485;45.702;11.364;2022-09-09T21:28:12;18.60;99.90
53599;DHT22;39485;45.702;11.364;2022-09-09T21:30:38;18.50;99.90
53599;DHT22;39485;45.702;11.364;2022-09-09T21:33:09;18.50;99.90
53599;DHT22;39485;45.702;11.364;2022-09-09T21:35:39;18.50;99.90
53599;DHT22;39485;45.702;11.364;2022-09-09T21:38:06;18.50;99.90
53599;DHT22;39485;45.702;11.364;2022-09-09T21:40:35;18.50;99.90
53599;DHT22;39485;45.702;11.364;2022-09-09T21:43:05;18.50;99.90
53599;DHT22;39485;45.702;11.364;2022-09-09T21:45:39;18.50;99.90
53599;DHT22;39485;45.702;11.364;2022-09-09T21:48:06;18.40;99.90
53599;DHT22;39485;45.702;11.364;2022-09-09T21:50:51;18.40;99.90
53599;DHT22;39485;45.702;11.364;2022-09-09T21:53:17;18.40;99.90
53599;DHT22;39485;45.702;11.364;2022-09-09T21:55:45;18.30;99.90
53599;DHT22;39485;45.702;11.364;2022-09-09T21:58:13;18.30;99.90
53599;DHT22;39485;45.702;11.364;2022-09-09T22:00:41;18.30;99.90
53599;DHT22;39485;45.702;11.364;2022-09-09T22:03:08;18.30;99.90
53599;DHT22;39485;45.702;11.364;2022-09-09T22:05:37;18.30;99.90
53599;DHT22;39485;45.702;11.364;2022-09-09T22:08:03;18.30;99.90
53599;DHT22;39485;45.702;11.364;2022-09-09T22:10:29;18.30;99.90
53599;DHT22;39485;45.702;11.364;2022-09-09T22:12:55;18.30;99.90
53599;DHT22;39485;45.702;11.364;2022-09-09T22:15:20;18.30;99.90
53599;DHT22;39485;45.702;11.364;2022-09-09T22:17:46;18.30;99.90
53599;DHT22;39485;45.702;11.364;2022-09-09T22:20:13;18.30;99.90
53599;DHT22;39485;45.702;11.364;2022-09-09T22:22:39;18.30;99.90
53599;DHT22;39485;45.702;11.364;2022-09-09T22:25:06;18.30;99.90
53599;DHT22;39485;45.702;11.364;2022-09-09T22:27:32;18.30;99.90
53599;DHT22;39485;45.702;11.364;2022-09-09T22:29:57;18.30;99.90
53599;DHT22;39485;45.702;11.364;2022-09-09T22:32:23;18.40;99.90
53599;DHT22;39485;45.702;11.364;2022-09-09T22:34:49;18.40;99.90
53599;DHT22;39485;45.702;11.364;2022-09-09T22:37:15;18.30;99.90
53599;DHT22;39485;45.702;11.364;2022-09-09T22:39:41;18.30;99.90
53599;DHT22;39485;45.702;11.364;2022-09-09T22:42:07;18.30;99.90
53599;DHT22;39485;45.702;11.364;2022-09-09T22:44:32;18.30;99.90
53599;DHT22;39485;45.702;11.364;2022-09-09T22:46:59;18.30;99.90
53599;DHT22;39485;45.702;11.364;2022-09-09T22:49:26;18.30;99.90
53599;DHT22;39485;45.702;11.364;2022-09-09T22:51:52;18.20;99.90
53599;DHT22;39485;45.702;11.364;2022-09-09T22:54:18;18.30;99.90
53599;DHT22;39485;45.702;11.364;2022-09-09T22:56:52;18.20;99.90
53599;DHT22;39485;45.702;11.364;2022-09-09T22:59:18;18.20;99.90
53599;DHT22;39485;45.702;11.364;2022-09-09T23:01:45;18.20;99.90
53599;DHT22;39485;45.702;11.364;2022-09-09T23:04:11;18.20;99.90
53599;DHT22;39485;45.702;11.364;2022-09-09T23:06:38;18.20;99.90
53599;DHT22;39485;45.702;11.364;2022-09-09T23:09:05;18.10;99.90
53599;DHT22;39485;45.702;11.364;2022-09-09T23:11:33;18.10;99.90